createdAt,value
2023-03-28T00:02:15.765Z,98610.09
2023-03-28T00:04:44.325Z,98602.72
2023-03-28T00:07:13.131Z,98605.19
2023-03-28T00:09:41.754Z,98604.19
2023-03-28T00:12:10.053Z,98612.97
2023-03-28T00:14:39.736Z,98621.53
2023-03-28T00:17:08.756Z,98614.41
2023-03-28T00:19:40.814Z,98628.41
2023-03-28T00:22:11.522Z,98616.72
2023-03-28T00:24:41.088Z,98632.63
2023-03-28T00:27:09.621Z,98629.06
2023-03-28T00:29:39.297Z,98643.22
2023-03-28T00:32:07.656Z,98654.06
2023-03-28T00:34:37.235Z,98642.31
2023-03-28T00:37:05.580Z,98646.06
2023-03-28T00:39:34.653Z,98645.75
2023-03-28T00:42:04.184Z,98641.06
2023-03-28T00:44:45.947Z,98638.41
2023-03-28T00:47:26.027Z,98646.50
2023-03-28T00:49:57.454Z,98632.72
2023-03-28T00:52:30.838Z,98623.72
2023-03-28T00:55:00.981Z,98636.16
2023-03-28T00:57:30.171Z,98626.28
2023-03-28T01:00:00.095Z,98638.72
2023-03-28T01:02:28.654Z,98639.63
2023-03-28T01:05:00.936Z,98645.78
2023-03-28T01:07:35.454Z,98632.03
2023-03-28T01:10:05.293Z,98641.72
2023-03-28T01:12:34.629Z,98650.25
2023-03-28T01:15:05.199Z,98643.69
2023-03-28T01:17:33.695Z,98639.25
2023-03-28T01:20:13.832Z,98648.88
2023-03-28T01:23:12.566Z,98633.34
2023-03-28T01:26:33.986Z,98642.78
2023-03-28T01:29:32.708Z,98642.00
2023-03-28T01:32:25.654Z,98634.91
2023-03-28T01:35:20.996Z,98621.69
2023-03-28T01:37:59.714Z,98619.13
2023-03-28T01:40:39.521Z,98624.78
2023-03-28T01:43:23.917Z,98627.56
2023-03-28T01:45:59.771Z,98640.56
2023-03-28T01:48:39.490Z,98648.69
2023-03-28T01:51:14.414Z,98633.13
2023-03-28T01:53:48.431Z,98629.13
2023-03-28T01:56:24.242Z,98629.78
2023-03-28T01:58:59.837Z,98637.00
2023-03-28T02:01:36.855Z,98634.91
2023-03-28T02:04:20.733Z,98640.88
2023-03-28T02:06:53.023Z,98645.78
2023-03-28T02:09:26.171Z,98626.78
2023-03-28T02:11:58.935Z,98634.34
2023-03-28T02:14:32.233Z,98636.53
2023-03-28T02:17:05.880Z,98628.00
2023-03-28T02:19:37.902Z,98647.09
2023-03-28T02:22:14.099Z,98638.00
2023-03-28T02:24:43.887Z,98650.28
2023-03-28T02:27:12.392Z,98667.50
2023-03-28T02:29:40.701Z,98657.50
2023-03-28T02:32:09.312Z,98644.84
2023-03-28T02:34:38.162Z,98662.25
2023-03-28T02:37:16.404Z,98663.38
2023-03-28T02:39:52.497Z,98650.91
2023-03-28T02:42:50.481Z,98624.78
2023-03-28T02:45:43.703Z,98641.16
2023-03-28T02:48:26.582Z,98637.25
2023-03-28T02:51:06.405Z,98658.47
2023-03-28T02:53:44.856Z,98645.97
2023-03-28T02:56:20.473Z,98682.09
2023-03-28T02:58:54.801Z,98671.81
2023-03-28T03:01:25.671Z,98683.75
2023-03-28T03:03:57.884Z,98699.31
2023-03-28T03:06:26.636Z,98709.56
2023-03-28T03:08:54.869Z,98694.88
2023-03-28T03:11:28.114Z,98688.66
2023-03-28T03:13:57.555Z,98685.69
2023-03-28T03:16:25.960Z,98704.38
2023-03-28T03:18:54.371Z,98689.94
2023-03-28T03:21:23.935Z,98719.69
2023-03-28T03:23:52.342Z,98701.91
2023-03-28T03:26:20.829Z,98708.63
2023-03-28T03:28:50.766Z,98718.81
2023-03-28T03:31:19.751Z,98726.63
2023-03-28T03:33:48.292Z,98719.91
2023-03-28T03:36:17.953Z,98721.94
2023-03-28T03:38:47.674Z,98719.44
2023-03-28T03:41:15.940Z,98723.19
2023-03-28T03:43:46.635Z,98743.84
2023-03-28T03:46:16.941Z,98732.91
2023-03-28T03:48:49.226Z,98767.09
2023-03-28T03:51:18.557Z,98750.41
2023-03-28T03:53:46.908Z,98752.28
2023-03-28T03:56:15.344Z,98756.63
2023-03-28T03:58:43.628Z,98753.34
2023-03-28T04:01:14.375Z,98775.06
2023-03-28T04:03:44.480Z,98781.13
2023-03-28T04:06:12.805Z,98776.13
2023-03-28T04:08:41.393Z,98779.88
2023-03-28T04:11:10.700Z,98785.34
2023-03-28T04:13:39.188Z,98779.41
2023-03-28T04:16:08.427Z,98794.84
2023-03-28T04:18:36.864Z,98785.19
2023-03-28T04:21:09.831Z,98783.47
2023-03-28T04:23:43.781Z,98815.63
2023-03-28T04:26:25.975Z,98802.22
2023-03-28T04:28:55.058Z,98809.72
2023-03-28T04:31:29.941Z,98822.69
2023-03-28T04:34:00.499Z,98831.91
2023-03-28T04:36:31.542Z,98838.75
2023-03-28T04:39:02.633Z,98845.50
2023-03-28T04:41:32.353Z,98836.44
2023-03-28T04:44:01.332Z,98849.25
2023-03-28T04:46:29.901Z,98830.53
2023-03-28T04:48:58.193Z,98855.47
2023-03-28T04:51:28.703Z,98854.38
2023-03-28T04:53:58.508Z,98848.13
2023-03-28T04:56:27.238Z,98831.44
2023-03-28T04:58:55.941Z,98836.88
2023-03-28T05:01:26.948Z,98847.78
2023-03-28T05:03:55.623Z,98858.63
2023-03-28T05:06:26.008Z,98858.28
2023-03-28T05:08:54.348Z,98848.47
2023-03-28T05:11:24.475Z,98853.94
2023-03-28T05:13:52.937Z,98850.66
2023-03-28T05:16:21.271Z,98848.31
2023-03-28T05:18:49.858Z,98861.44
2023-03-28T05:21:18.169Z,98875.22
2023-03-28T05:23:51.792Z,98894.75
2023-03-28T05:26:21.167Z,98896.00
2023-03-28T05:28:51.331Z,98885.59
2023-03-28T05:31:19.651Z,98847.50
2023-03-28T05:33:47.937Z,98869.84
2023-03-28T05:36:16.391Z,98875.59
2023-03-28T05:38:44.804Z,98883.94
2023-03-28T05:41:13.109Z,98891.06
2023-03-28T05:43:41.374Z,98922.59
2023-03-28T05:46:11.246Z,98919.34
2023-03-28T05:48:39.956Z,98942.47
2023-03-28T05:51:08.770Z,98936.16
2023-03-28T05:53:37.045Z,98922.09
2023-03-28T05:56:05.982Z,98905.91
2023-03-28T05:58:34.496Z,98921.28
2023-03-28T06:01:04.595Z,98957.84
2023-03-28T06:03:34.340Z,98977.28
2023-03-28T06:06:02.572Z,98970.13
2023-03-28T06:08:32.142Z,98972.28
2023-03-28T06:11:02.666Z,98989.50
2023-03-28T06:13:31.593Z,98998.69
2023-03-28T06:16:00.038Z,99002.34
2023-03-28T06:18:28.316Z,98984.59
2023-03-28T06:20:58.363Z,98997.78
2023-03-28T06:23:26.971Z,99024.41
2023-03-28T06:25:55.283Z,99037.63
2023-03-28T06:28:23.591Z,99024.13
2023-03-28T06:30:52.107Z,99055.13
2023-03-28T06:33:21.584Z,99052.41
2023-03-28T06:35:49.914Z,99086.13
2023-03-28T06:38:19.663Z,99054.47
2023-03-28T06:40:48.031Z,99064.06
2023-03-28T06:43:16.340Z,99048.66
2023-03-28T06:45:44.802Z,99058.47
2023-03-28T06:48:13.021Z,99066.63
2023-03-28T06:50:41.351Z,99048.69
2023-03-28T06:53:09.670Z,99043.56
2023-03-28T06:55:39.396Z,99052.63
2023-03-28T06:58:08.112Z,99062.69
2023-03-28T07:00:36.652Z,99088.50
2023-03-28T07:03:05.238Z,99091.13
2023-03-28T07:05:33.548Z,99095.13
2023-03-28T07:08:01.884Z,99103.03
2023-03-28T07:10:30.525Z,99107.19
2023-03-28T07:13:00.265Z,99081.13
2023-03-28T07:15:28.849Z,99105.88
2023-03-28T07:17:57.244Z,99112.53
2023-03-28T07:20:26.334Z,99107.31
2023-03-28T07:22:54.717Z,99124.69
2023-03-28T07:25:23.330Z,99127.84
2023-03-28T07:27:51.726Z,99131.09
2023-03-28T07:30:21.583Z,99129.19
2023-03-28T07:32:56.752Z,99116.94
2023-03-28T07:35:28.277Z,99125.06
2023-03-28T07:37:57.554Z,99120.03
2023-03-28T07:40:25.794Z,99145.06
2023-03-28T07:42:54.102Z,99126.50
2023-03-28T07:45:23.773Z,99148.56
2023-03-28T07:47:52.153Z,99135.41
2023-03-28T07:50:22.374Z,99123.94
2023-03-28T07:52:57.622Z,99123.66
2023-03-28T07:55:26.704Z,99133.66
2023-03-28T07:57:55.672Z,99145.38
2023-03-28T08:00:25.600Z,99151.81
2023-03-28T08:02:53.850Z,99128.31
2023-03-28T08:05:24.232Z,99139.59
2023-03-28T08:07:53.914Z,99118.47
2023-03-28T08:10:22.156Z,99101.78
2023-03-28T08:12:50.411Z,99106.19
2023-03-28T08:15:18.750Z,99123.63
2023-03-28T08:17:48.636Z,99126.09
2023-03-28T08:20:21.705Z,99109.63
2023-03-28T08:22:50.809Z,99113.84
2023-03-28T08:25:19.501Z,99122.47
2023-03-28T08:27:47.867Z,99103.97
2023-03-28T08:30:16.211Z,99127.19
2023-03-28T08:32:46.269Z,99112.75
2023-03-28T08:35:18.022Z,99122.88
2023-03-28T08:37:46.406Z,99126.88
2023-03-28T08:40:17.992Z,99116.69
2023-03-28T08:42:58.466Z,99143.03
2023-03-28T08:45:39.239Z,99128.41
2023-03-28T08:48:17.113Z,99125.75
2023-03-28T08:50:49.184Z,99122.38
2023-03-28T08:53:26.511Z,99140.56
2023-03-28T08:55:57.644Z,99127.47
2023-03-28T08:58:31.801Z,99143.00
2023-03-28T09:01:00.287Z,99160.25
2023-03-28T09:03:29.019Z,99168.22
2023-03-28T09:06:05.764Z,99179.88
2023-03-28T09:08:43.022Z,99178.28
2023-03-28T09:11:26.375Z,99216.44
2023-03-28T09:14:08.188Z,99241.22
2023-03-28T09:16:49.579Z,99290.63
2023-03-28T09:19:37.075Z,99303.34
2023-03-28T09:22:25.792Z,99333.81
2023-03-28T09:25:08.580Z,99344.41
2023-03-28T09:27:49.984Z,99335.03
2023-03-28T09:30:20.840Z,99371.31
2023-03-28T09:32:50.969Z,99373.28
2023-03-28T09:35:21.509Z,99382.53
2023-03-28T09:37:54.549Z,99392.16
2023-03-28T09:40:25.166Z,99386.84
2023-03-28T09:43:06.282Z,99394.34
2023-03-28T09:45:44.665Z,99381.63
2023-03-28T09:48:20.516Z,99419.09
2023-03-28T09:50:48.984Z,99408.69
2023-03-28T09:53:23.718Z,99406.94
2023-03-28T09:56:03.441Z,99416.34
2023-03-28T09:58:50.120Z,99418.22
2023-03-28T10:01:28.485Z,99411.94
2023-03-28T10:03:57.422Z,99419.78
2023-03-28T10:06:27.972Z,99421.50
2023-03-28T10:09:16.756Z,99443.13
2023-03-28T10:11:55.507Z,99437.78
2023-03-28T10:14:32.835Z,99447.00
2023-03-28T10:17:03.990Z,99450.84
2023-03-28T10:19:35.102Z,99454.31
2023-03-28T10:22:07.513Z,99455.00
2023-03-28T10:24:37.875Z,99453.94
2023-03-28T10:27:17.623Z,99461.47
2023-03-28T10:29:47.902Z,99468.28
2023-03-28T10:32:26.786Z,99478.00
2023-03-28T10:35:03.531Z,99474.31
2023-03-28T10:37:33.553Z,99484.59
2023-03-28T10:40:08.083Z,99491.59
2023-03-28T10:42:44.058Z,99498.31
2023-03-28T10:45:24.043Z,99504.94
2023-03-28T10:47:57.920Z,99506.19
2023-03-28T10:50:34.744Z,99506.50
2023-03-28T10:53:22.282Z,99516.06
2023-03-28T10:56:03.870Z,99510.66
2023-03-28T10:58:36.502Z,99508.53
2023-03-28T11:01:11.308Z,99523.66
2023-03-28T11:03:57.292Z,99532.97
2023-03-28T11:06:35.029Z,99531.53
2023-03-28T11:09:16.637Z,99538.84
2023-03-28T11:11:58.447Z,99541.41
2023-03-28T11:14:38.176Z,99532.91
2023-03-28T11:17:13.682Z,99529.91
2023-03-28T11:19:59.376Z,99532.81
2023-03-28T11:22:39.507Z,99531.16
2023-03-28T11:25:22.070Z,99533.09
2023-03-28T11:27:59.059Z,99540.59
2023-03-28T11:30:33.198Z,99545.81
2023-03-28T11:33:09.328Z,99542.84
2023-03-28T11:35:42.074Z,99539.88
2023-03-28T11:38:15.486Z,99539.44
2023-03-28T11:40:52.297Z,99535.16
2023-03-28T11:43:33.140Z,99532.22
2023-03-28T11:46:07.863Z,99532.91
2023-03-28T11:48:43.800Z,99530.97
2023-03-28T11:51:17.366Z,99535.25
2023-03-28T11:53:53.772Z,99540.16
2023-03-28T11:56:33.230Z,99541.09
2023-03-28T11:59:07.877Z,99554.44
2023-03-28T12:01:41.584Z,99558.84
2023-03-28T12:04:15.577Z,99562.25
2023-03-28T12:07:02.367Z,99562.34
2023-03-28T12:09:37.770Z,99571.63
2023-03-28T12:12:14.208Z,99571.72
2023-03-28T12:14:54.254Z,99567.44
2023-03-28T12:17:27.233Z,99584.38
2023-03-28T12:19:56.931Z,99580.78
2023-03-28T12:22:30.593Z,99591.44
2023-03-28T12:25:09.111Z,99595.91
2023-03-28T12:27:52.378Z,99596.38
2023-03-28T12:30:27.888Z,99605.28
2023-03-28T12:33:06.816Z,99617.09
2023-03-28T12:35:43.109Z,99620.78
2023-03-28T12:38:22.600Z,99631.97
2023-03-28T12:40:56.326Z,99623.09
2023-03-28T12:43:30.739Z,99632.22
2023-03-28T12:46:03.840Z,99621.97
2023-03-28T12:48:36.938Z,99629.66
2023-03-28T12:51:15.481Z,99639.13
2023-03-28T12:54:01.669Z,99640.50
2023-03-28T12:56:30.556Z,99638.53
2023-03-28T12:59:00.120Z,99638.25
2023-03-28T13:01:45.905Z,99648.09
2023-03-28T13:04:29.961Z,99649.97
2023-03-28T13:07:08.890Z,99652.41
2023-03-28T13:10:04.685Z,99651.31
2023-03-28T13:12:57.192Z,99656.53
2023-03-28T13:15:28.668Z,99654.63
2023-03-28T13:18:31.802Z,99654.63
2023-03-28T13:21:04.455Z,99658.81
2023-03-28T13:24:00.889Z,99654.63
2023-03-28T13:26:59.712Z,99657.81
2023-03-28T13:29:47.208Z,99664.34
2023-03-28T13:32:17.763Z,99683.41
2023-03-28T13:34:53.930Z,99686.75
2023-03-28T13:37:24.785Z,99683.69
2023-03-28T13:39:55.735Z,99697.31
2023-03-28T13:42:28.957Z,99700.69
2023-03-28T13:45:01.329Z,99710.75
2023-03-28T13:47:35.454Z,99703.88
2023-03-28T13:50:17.330Z,99702.31
2023-03-28T13:52:46.185Z,99707.19
2023-03-28T13:55:22.657Z,99713.03
2023-03-28T13:57:55.454Z,99723.75
2023-03-28T14:00:27.136Z,99715.28
2023-03-28T14:03:02.507Z,99719.47
2023-03-28T14:05:34.007Z,99721.75
2023-03-28T14:08:22.422Z,99712.00
2023-03-28T14:10:52.544Z,99723.03
2023-03-28T14:13:25.564Z,99721.22
2023-03-28T14:15:57.193Z,99735.41
2023-03-28T14:18:34.018Z,99744.81
2023-03-28T14:21:06.863Z,99757.34
2023-03-28T14:23:38.191Z,99764.72
2023-03-28T14:26:10.399Z,99758.41
2023-03-28T14:28:42.745Z,99783.03
2023-03-28T14:31:14.998Z,99793.66
2023-03-28T14:33:47.440Z,99795.97
2023-03-28T14:36:18.998Z,99800.13
2023-03-28T14:38:47.438Z,99808.63
2023-03-28T14:41:19.423Z,99806.59
2023-03-28T14:43:51.761Z,99810.09
2023-03-28T14:46:25.532Z,99809.25
2023-03-28T14:48:56.631Z,99827.06
2023-03-28T14:51:28.322Z,99829.66
2023-03-28T14:53:58.470Z,99825.94
2023-03-28T14:56:29.459Z,99833.53
2023-03-28T14:59:01.591Z,99833.97
2023-03-28T15:01:33.986Z,99832.78
2023-03-28T15:04:06.707Z,99839.22
2023-03-28T15:06:39.408Z,99832.50
2023-03-28T15:09:13.020Z,99846.06
2023-03-28T15:11:44.759Z,99859.41
2023-03-28T15:14:17.386Z,99856.22
2023-03-28T15:16:48.146Z,99861.88
2023-03-28T15:19:22.477Z,99856.88
2023-03-28T15:21:57.522Z,99861.88
2023-03-28T15:24:27.901Z,99865.03
2023-03-28T15:26:59.260Z,99876.97
2023-03-28T15:29:28.558Z,99883.56
2023-03-28T15:32:02.917Z,99885.94
2023-03-28T15:34:33.243Z,99885.69
2023-03-28T15:37:05.257Z,99890.78
2023-03-28T15:39:35.406Z,99892.59
2023-03-28T15:42:37.263Z,99896.41
2023-03-28T15:45:47.179Z,99900.47
2023-03-28T15:48:19.893Z,99905.81
2023-03-28T15:50:53.258Z,99913.38
2023-03-28T15:53:27.374Z,99911.34
2023-03-28T15:55:56.590Z,99913.44
2023-03-28T15:58:25.113Z,99915.81
2023-03-28T16:00:54.879Z,99916.34
2023-03-28T16:03:34.813Z,99918.47
2023-03-28T16:06:26.687Z,99914.00
2023-03-28T16:09:15.959Z,99918.31
2023-03-28T16:11:45.791Z,99924.69
2023-03-28T16:14:18.251Z,99934.13
2023-03-28T16:16:49.309Z,99919.88
2023-03-28T16:19:26.997Z,99923.22
2023-03-28T16:21:56.276Z,99926.28
2023-03-28T16:24:27.303Z,99933.91
2023-03-28T16:26:56.416Z,99942.84
2023-03-28T16:29:24.896Z,99954.09
2023-03-28T16:31:53.409Z,99952.69
2023-03-28T16:34:21.926Z,99956.97
2023-03-28T16:36:50.213Z,99964.88
2023-03-28T16:39:18.745Z,99982.56
2023-03-28T16:41:48.707Z,99976.72
2023-03-28T16:44:17.277Z,99981.47
2023-03-28T16:46:45.645Z,99993.97
2023-03-28T16:49:14.144Z,99998.88
2023-03-28T16:51:43.738Z,100006.34
2023-03-28T16:54:12.024Z,100005.72
2023-03-28T16:56:40.678Z,100015.78
2023-03-28T16:59:11.159Z,100010.47
2023-03-28T17:01:41.418Z,100007.84
2023-03-28T17:04:09.773Z,100010.00
2023-03-28T17:06:38.071Z,100014.53
2023-03-28T17:09:06.814Z,100019.06
2023-03-28T17:11:42.903Z,100021.41
2023-03-28T17:14:12.554Z,100023.50
2023-03-28T17:16:40.822Z,100024.81
2023-03-28T17:19:09.440Z,100024.81
2023-03-28T17:21:37.873Z,100020.56
2023-03-28T17:24:11.332Z,100032.78
2023-03-28T17:26:40.422Z,100029.38
2023-03-28T17:29:10.242Z,100029.09
2023-03-28T17:31:41.273Z,100035.69
2023-03-28T17:34:09.913Z,100039.16
2023-03-28T17:36:41.197Z,100054.66
2023-03-28T17:39:10.193Z,100055.66
2023-03-28T17:41:38.854Z,100064.16
2023-03-28T17:44:09.003Z,100060.13
2023-03-28T17:46:39.055Z,100076.84
2023-03-28T17:49:09.173Z,100071.47
2023-03-28T17:51:37.800Z,100072.28
2023-03-28T17:54:12.067Z,100081.59
2023-03-28T17:56:40.512Z,100081.56
2023-03-28T17:59:08.871Z,100089.59
2023-03-28T18:01:37.062Z,100082.69
2023-03-28T18:04:05.285Z,100088.50
2023-03-28T18:06:35.322Z,100104.44
2023-03-28T18:09:04.350Z,100108.16
2023-03-28T18:11:32.544Z,100109.81
2023-03-28T18:14:00.772Z,100110.91
2023-03-28T18:16:29.243Z,100109.84
2023-03-28T18:18:57.799Z,100113.53
2023-03-28T18:21:26.215Z,100123.13
2023-03-28T18:23:56.134Z,100126.81
2023-03-28T18:26:24.508Z,100126.84
2023-03-28T18:28:52.921Z,100127.47
2023-03-28T18:31:28.264Z,100139.66
2023-03-28T18:33:57.890Z,100137.03
2023-03-28T18:36:26.850Z,100137.66
2023-03-28T18:38:57.257Z,100157.03
2023-03-28T18:41:27.617Z,100148.81
2023-03-28T18:43:56.561Z,100163.16
2023-03-28T18:46:26.246Z,100173.53
2023-03-28T18:48:55.226Z,100181.22
2023-03-28T18:51:24.694Z,100185.75
2023-03-28T18:53:54.052Z,100188.66
2023-03-28T18:56:24.666Z,100200.06
2023-03-28T18:58:53.630Z,100197.91
2023-03-28T19:01:23.353Z,100205.63
2023-03-28T19:03:52.512Z,100203.50
2023-03-28T19:06:21.815Z,100210.38
2023-03-28T19:08:51.778Z,100206.66
2023-03-28T19:11:20.442Z,100214.38
2023-03-28T19:13:51.574Z,100217.03
2023-03-28T19:16:23.615Z,100208.53
2023-03-28T19:18:52.314Z,100224.13
2023-03-28T19:21:20.995Z,100222.00
2023-03-28T19:23:50.821Z,100228.41
2023-03-28T19:26:20.169Z,100224.91
2023-03-28T19:28:50.868Z,100228.88
2023-03-28T19:31:22.861Z,100237.91
2023-03-28T19:33:51.462Z,100245.81
2023-03-28T19:36:20.176Z,100253.16
2023-03-28T19:38:49.044Z,100257.94
2023-03-28T19:41:20.308Z,100258.13
2023-03-28T19:43:51.353Z,100262.84
2023-03-28T19:46:24.841Z,100262.06
2023-03-28T19:48:56.971Z,100272.84
2023-03-28T19:51:26.029Z,100275.50
2023-03-28T19:53:54.868Z,100273.09
2023-03-28T19:56:24.592Z,100272.25
2023-03-28T19:58:54.777Z,100276.78
2023-03-28T20:01:23.453Z,100281.63
2023-03-28T20:03:53.427Z,100267.13
2023-03-28T20:06:23.598Z,100263.19
2023-03-28T20:08:54.358Z,100273.03
2023-03-28T20:11:23.284Z,100291.56
2023-03-28T20:13:53.686Z,100281.25
2023-03-28T20:16:22.348Z,100289.25
2023-03-28T20:18:51.036Z,100281.06
2023-03-28T20:21:19.788Z,100290.09
2023-03-28T20:23:48.528Z,100295.41
2023-03-28T20:26:19.510Z,100297.25
2023-03-28T20:28:50.403Z,100304.16
2023-03-28T20:31:20.851Z,100310.56
2023-03-28T20:33:49.523Z,100307.66
2023-03-28T20:36:18.135Z,100310.00
2023-03-28T20:38:49.251Z,100315.88
2023-03-28T20:41:19.249Z,100324.06
2023-03-28T20:43:48.158Z,100324.59
2023-03-28T20:46:19.854Z,100323.81
2023-03-28T20:48:52.606Z,100326.47
2023-03-28T20:51:23.008Z,100327.53
2023-03-28T20:53:54.586Z,100324.38
2023-03-28T20:56:25.005Z,100334.44
2023-03-28T20:58:55.645Z,100331.81
2023-03-28T21:01:28.467Z,100343.50
2023-03-28T21:04:00.573Z,100340.28
2023-03-28T21:06:30.755Z,100336.59
2023-03-28T21:09:00.931Z,100328.09
2023-03-28T21:11:32.084Z,100331.00
2023-03-28T21:14:01.328Z,100332.31
2023-03-28T21:16:31.106Z,100334.97
2023-03-28T21:19:02.653Z,100337.09
2023-03-28T21:21:33.358Z,100324.94
2023-03-28T21:24:02.328Z,100333.41
2023-03-28T21:26:31.525Z,100332.09
2023-03-28T21:29:00.213Z,100322.00
2023-03-28T21:31:30.245Z,100322.53
2023-03-28T21:34:01.093Z,100316.97
2023-03-28T21:36:29.746Z,100324.69
2023-03-28T21:38:59.153Z,100326.03
2023-03-28T21:41:28.828Z,100341.94
2023-03-28T21:43:58.800Z,100343.50
2023-03-28T21:46:27.302Z,100339.78
2023-03-28T21:48:56.017Z,100341.88
2023-03-28T21:51:26.082Z,100336.34
2023-03-28T21:53:54.660Z,100341.63
2023-03-28T21:56:23.213Z,100346.91
2023-03-28T21:58:52.127Z,100353.28
2023-03-28T22:01:21.591Z,100353.53
2023-03-28T22:03:50.685Z,100352.44
2023-03-28T22:06:19.858Z,100355.63
2023-03-28T22:08:52.612Z,100358.56
2023-03-28T22:11:28.149Z,100359.91
2023-03-28T22:14:01.521Z,100366.81
2023-03-28T22:16:34.708Z,100357.25
2023-03-28T22:19:03.720Z,100360.44
2023-03-28T22:21:32.470Z,100362.03
2023-03-28T22:24:04.479Z,100357.25
2023-03-28T22:26:32.921Z,100361.53
2023-03-28T22:29:01.715Z,100371.59
2023-03-28T22:31:31.003Z,100361.53
2023-03-28T22:33:59.721Z,100367.88
2023-03-28T22:36:28.385Z,100377.44
2023-03-28T22:38:57.196Z,100363.09
2023-03-28T22:41:32.086Z,100362.56
2023-03-28T22:44:00.548Z,100370.53
2023-03-28T22:46:28.963Z,100371.06
2023-03-28T22:48:58.622Z,100374.00
2023-03-28T22:51:28.193Z,100376.13
2023-03-28T22:54:02.995Z,100377.69
2023-03-28T22:56:33.762Z,100390.97
2023-03-28T22:59:02.253Z,100383.28
2023-03-28T23:01:30.703Z,100383.81
2023-03-28T23:03:59.038Z,100380.34
2023-03-28T23:06:27.322Z,100380.34
2023-03-28T23:08:55.569Z,100373.94
2023-03-28T23:11:23.940Z,100383.25
2023-03-28T23:13:53.664Z,100389.06
2023-03-28T23:16:22.152Z,100382.94
2023-03-28T23:18:50.845Z,100390.38
2023-03-28T23:21:19.140Z,100394.38
2023-03-28T23:23:47.644Z,100391.16
2023-03-28T23:26:16.793Z,100403.34
2023-03-28T23:28:45.813Z,100387.69
2023-03-28T23:31:15.805Z,100391.16
2023-03-28T23:33:46.307Z,100388.97
2023-03-28T23:36:15.363Z,100386.84
2023-03-28T23:38:43.704Z,100378.13
2023-03-28T23:41:12.577Z,100374.16
2023-03-28T23:43:40.914Z,100377.91
2023-03-28T23:46:09.385Z,100391.72
2023-03-28T23:48:39.366Z,100396.50
2023-03-28T23:51:09.121Z,100408.97
2023-03-28T23:53:37.568Z,100397.03
2023-03-28T23:56:06.787Z,100408.16
2023-03-28T23:58:35.472Z,100411.06
